createdAt,value
2018-07-15T00:01:14.528Z,16.40
2018-07-15T00:03:42.859Z,16.30
2018-07-15T00:06:11.228Z,16.20
2018-07-15T00:08:39.508Z,16.20
2018-07-15T00:11:08.952Z,16.10
2018-07-15T00:13:37.480Z,16.00
2018-07-15T00:16:05.807Z,15.90
2018-07-15T00:18:34.148Z,15.90
2018-07-15T00:21:02.584Z,15.90
2018-07-15T00:23:30.925Z,15.80
2018-07-15T00:25:59.415Z,15.80
2018-07-15T00:28:27.920Z,15.70
2018-07-15T00:30:56.336Z,15.60
2018-07-15T00:33:24.776Z,15.60
2018-07-15T00:35:53.259Z,15.60
2018-07-15T00:38:21.624Z,15.50
2018-07-15T00:40:50.010Z,15.50
2018-07-15T00:43:18.376Z,15.40
2018-07-15T00:45:46.844Z,15.40
2018-07-15T00:48:15.176Z,15.30
2018-07-15T00:50:43.701Z,15.30
2018-07-15T00:53:12.220Z,15.20
2018-07-15T00:55:40.716Z,15.10
2018-07-15T00:58:09.133Z,15.10
2018-07-15T01:00:42.792Z,15.00
2018-07-15T01:03:11.265Z,14.90
2018-07-15T01:05:39.704Z,14.90
2018-07-15T01:08:08.370Z,14.90
2018-07-15T01:10:36.841Z,14.90
2018-07-15T01:13:05.304Z,14.80
2018-07-15T01:15:33.757Z,14.70
2018-07-15T01:18:02.148Z,14.70
2018-07-15T01:20:30.586Z,14.60
2018-07-15T01:23:00.028Z,14.50
2018-07-15T01:25:28.455Z,14.50
2018-07-15T01:27:56.841Z,14.50
2018-07-15T01:30:25.384Z,14.40
2018-07-15T01:32:53.817Z,14.40
2018-07-15T01:35:22.252Z,14.40
2018-07-15T01:37:50.664Z,14.30
2018-07-15T01:40:19.088Z,14.30
2018-07-15T01:42:47.960Z,14.20
2018-07-15T01:45:16.512Z,14.20
2018-07-15T01:47:47.028Z,14.10
2018-07-15T01:50:15.703Z,14.10
2018-07-15T01:52:44.317Z,14.10
2018-07-15T01:55:12.882Z,14.00
2018-07-15T01:57:41.332Z,14.00
2018-07-15T02:00:09.948Z,14.00
2018-07-15T02:02:38.352Z,14.00
2018-07-15T02:05:07.300Z,13.90
2018-07-15T02:07:36.785Z,13.80
2018-07-15T02:10:08.935Z,13.70
2018-07-15T02:12:37.344Z,13.70
2018-07-15T02:15:06.189Z,13.70
2018-07-15T02:17:34.633Z,13.70
2018-07-15T02:20:03.105Z,13.70
2018-07-15T02:22:31.540Z,13.70
2018-07-15T02:25:00.017Z,13.60
2018-07-15T02:27:28.476Z,13.50
2018-07-15T02:29:56.941Z,13.40
2018-07-15T02:32:25.325Z,13.30
2018-07-15T02:34:53.828Z,13.30
2018-07-15T02:37:22.242Z,13.30
2018-07-15T02:39:50.693Z,13.30
2018-07-15T02:42:19.199Z,13.30
2018-07-15T02:44:47.584Z,13.20
2018-07-15T02:47:15.983Z,13.20
2018-07-15T02:49:44.369Z,13.10
2018-07-15T02:52:12.913Z,13.10
2018-07-15T02:54:41.456Z,13.00
2018-07-15T02:57:10.054Z,13.00
2018-07-15T02:59:38.437Z,13.00
2018-07-15T03:02:06.985Z,13.00
2018-07-15T03:04:35.525Z,13.00
2018-07-15T03:07:03.975Z,12.90
2018-07-15T03:09:32.529Z,12.90
2018-07-15T03:12:00.932Z,12.80
2018-07-15T03:14:29.304Z,12.80
2018-07-15T03:16:58.595Z,12.80
2018-07-15T03:19:27.069Z,12.80
2018-07-15T03:24:23.596Z,12.80
2018-07-15T03:26:51.968Z,12.70
2018-07-15T03:29:20.441Z,12.60
2018-07-15T03:31:48.874Z,12.50
2018-07-15T03:34:17.367Z,12.60
2018-07-15T03:36:45.768Z,12.60
2018-07-15T03:39:14.305Z,12.50
2018-07-15T03:41:42.680Z,12.50
2018-07-15T03:44:11.108Z,12.60
2018-07-15T03:46:39.484Z,12.60
2018-07-15T03:49:07.963Z,12.60
2018-07-15T03:51:36.577Z,12.60
2018-07-15T03:56:33.009Z,12.70
2018-07-15T03:59:01.425Z,12.70
2018-07-15T04:01:29.801Z,12.70
2018-07-15T04:03:58.208Z,12.70
2018-07-15T04:06:26.938Z,12.70
2018-07-15T04:08:55.397Z,12.80
2018-07-15T04:11:23.892Z,12.80
2018-07-15T04:13:52.431Z,12.80
2018-07-15T04:16:20.874Z,12.80
2018-07-15T04:18:49.305Z,12.80
2018-07-15T04:21:17.857Z,12.80
2018-07-15T04:23:46.226Z,12.90
2018-07-15T04:26:14.652Z,12.90
2018-07-15T04:28:43.068Z,13.00
2018-07-15T04:31:11.533Z,13.00
2018-07-15T04:33:40.097Z,13.10
2018-07-15T04:36:08.589Z,13.10
2018-07-15T04:38:36.992Z,13.20
2018-07-15T04:41:05.409Z,13.30
2018-07-15T04:43:33.846Z,13.40
2018-07-15T04:46:02.383Z,13.60
2018-07-15T04:48:30.929Z,13.80
2018-07-15T04:50:59.506Z,14.00
2018-07-15T04:53:28.130Z,14.10
2018-07-15T04:55:56.555Z,14.30
2018-07-15T04:58:25.076Z,14.50
2018-07-15T05:00:53.503Z,14.70
2018-07-15T05:03:21.873Z,14.90
2018-07-15T05:05:50.240Z,15.10
2018-07-15T05:08:18.760Z,15.30
2018-07-15T05:10:47.150Z,15.60
2018-07-15T05:13:15.593Z,16.00
2018-07-15T05:15:44.037Z,16.30
2018-07-15T05:18:12.522Z,16.60
2018-07-15T05:20:40.975Z,16.90
2018-07-15T05:23:09.378Z,17.30
2018-07-15T05:25:37.873Z,17.60
2018-07-15T05:28:06.402Z,18.00
2018-07-15T05:30:34.828Z,18.30
2018-07-15T05:33:03.246Z,18.60
2018-07-15T05:35:31.633Z,19.10
2018-07-15T05:38:00.097Z,19.40
2018-07-15T05:40:28.537Z,19.70
2018-07-15T05:42:56.989Z,20.00
2018-07-15T05:45:25.364Z,20.40
2018-07-15T05:47:53.865Z,20.70
2018-07-15T05:50:22.276Z,21.10
2018-07-15T05:52:51.091Z,21.80
2018-07-15T05:55:19.572Z,22.20
2018-07-15T05:57:48.176Z,22.50
2018-07-15T06:00:16.640Z,22.70
2018-07-15T06:02:52.334Z,23.20
2018-07-15T06:05:20.784Z,23.70
2018-07-15T06:07:49.229Z,24.10
2018-07-15T06:10:17.664Z,24.40
2018-07-15T06:12:46.096Z,24.90
2018-07-15T06:15:14.696Z,24.80
2018-07-15T06:17:43.101Z,24.80
2018-07-15T06:20:11.593Z,25.10
2018-07-15T06:22:40.078Z,25.70
2018-07-15T06:25:08.436Z,25.90
2018-07-15T06:27:37.111Z,26.10
2018-07-15T06:30:05.510Z,25.90
2018-07-15T06:32:33.916Z,26.80
2018-07-15T06:35:02.340Z,27.30
2018-07-15T06:37:30.825Z,27.20
2018-07-15T06:39:59.175Z,27.50
2018-07-15T06:42:27.521Z,28.50
2018-07-15T06:44:56.190Z,28.60
2018-07-15T06:47:26.089Z,28.00
2018-07-15T06:49:54.512Z,28.20
2018-07-15T06:52:22.953Z,29.40
2018-07-15T06:54:51.362Z,28.80
2018-07-15T06:57:23.616Z,29.70
2018-07-15T06:59:52.135Z,29.90
2018-07-15T07:02:20.580Z,30.50
2018-07-15T07:04:48.992Z,30.60
2018-07-15T07:07:22.450Z,30.90
2018-07-15T07:09:50.806Z,30.70
2018-07-15T07:12:19.209Z,29.50
2018-07-15T07:14:47.648Z,30.10
2018-07-15T07:17:16.140Z,31.80
2018-07-15T07:19:44.662Z,32.50
2018-07-15T07:22:13.513Z,32.40
2018-07-15T07:24:42.001Z,32.80
2018-07-15T07:27:10.452Z,32.30
2018-07-15T07:29:38.913Z,32.10
2018-07-15T07:32:07.357Z,32.80
2018-07-15T07:34:35.780Z,33.00
2018-07-15T07:37:04.277Z,32.40
2018-07-15T07:39:32.700Z,32.20
2018-07-15T07:42:01.109Z,32.30
2018-07-15T07:44:33.631Z,33.40
2018-07-15T07:47:02.320Z,33.60
2018-07-15T07:49:30.693Z,32.70
2018-07-15T07:51:59.261Z,32.50
2018-07-15T07:54:31.914Z,33.40
2018-07-15T07:57:00.313Z,33.80
2018-07-15T07:59:28.692Z,34.20
2018-07-15T08:01:57.153Z,34.30
2018-07-15T08:04:25.589Z,34.60
2018-07-15T08:06:54.004Z,34.90
2018-07-15T08:09:22.405Z,35.30
2018-07-15T08:11:51.024Z,35.70
2018-07-15T08:14:19.452Z,35.60
2018-07-15T08:16:51.354Z,35.70
2018-07-15T08:19:19.688Z,34.80
2018-07-15T08:21:48.151Z,34.60
2018-07-15T08:24:16.848Z,34.50
2018-07-15T08:29:13.456Z,34.80
2018-07-15T08:31:41.868Z,33.80
2018-07-15T08:34:10.336Z,33.80
2018-07-15T08:36:39.545Z,34.30
2018-07-15T08:39:08.332Z,34.30
2018-07-15T08:41:36.780Z,36.30
2018-07-15T08:44:05.312Z,36.60
2018-07-15T08:46:33.795Z,36.00
2018-07-15T08:49:02.250Z,35.60
2018-07-15T08:51:30.648Z,36.60
2018-07-15T08:53:59.049Z,37.40
2018-07-15T08:56:27.496Z,37.80
2018-07-15T08:58:55.973Z,37.50
2018-07-15T09:01:24.408Z,37.30
2018-07-15T09:03:52.770Z,36.90
2018-07-15T09:06:22.186Z,36.50
2018-07-15T09:08:51.837Z,37.40
2018-07-15T09:11:20.213Z,37.80
2018-07-15T09:13:48.608Z,36.80
2018-07-15T09:16:18.046Z,35.10
2018-07-15T09:18:46.452Z,35.40
2018-07-15T09:21:14.885Z,35.50
2018-07-15T09:26:11.180Z,35.20
2018-07-15T09:28:39.562Z,35.60
2018-07-15T09:31:08.024Z,36.80
2018-07-15T09:33:36.448Z,37.10
2018-07-15T09:36:04.824Z,36.90
2018-07-15T09:38:33.325Z,37.10
2018-07-15T09:41:01.736Z,37.70
2018-07-15T09:43:30.200Z,37.90
2018-07-15T09:45:58.676Z,38.40
2018-07-15T09:48:27.113Z,37.90
2018-07-15T09:50:55.540Z,37.60
2018-07-15T09:53:23.936Z,37.90
2018-07-15T09:55:52.388Z,38.50
2018-07-15T09:58:20.974Z,38.40
2018-07-15T10:00:55.308Z,36.20
2018-07-15T10:03:23.815Z,37.80
2018-07-15T10:05:52.518Z,38.50
2018-07-15T10:08:22.093Z,38.40
2018-07-15T10:10:50.412Z,38.50
2018-07-15T10:13:19.486Z,38.90
2018-07-15T10:15:48.220Z,38.40
2018-07-15T10:18:16.988Z,38.50
2018-07-15T10:20:45.468Z,38.50
2018-07-15T10:23:13.883Z,38.60
2018-07-15T10:25:42.286Z,38.40
2018-07-15T10:28:10.685Z,37.40
2018-07-15T10:30:39.084Z,37.60
2018-07-15T10:33:07.521Z,37.80
2018-07-15T10:35:36.000Z,37.10
2018-07-15T10:38:04.477Z,37.30
2018-07-15T10:40:32.871Z,38.10
2018-07-15T10:43:01.373Z,38.40
2018-07-15T10:45:29.812Z,38.40
2018-07-15T10:47:58.264Z,38.40
2018-07-15T10:50:26.665Z,38.60
2018-07-15T10:52:55.043Z,38.70
2018-07-15T10:55:23.420Z,38.90
2018-07-15T10:57:51.883Z,39.00
2018-07-15T11:00:20.328Z,39.00
2018-07-15T11:02:48.768Z,37.20
2018-07-15T11:05:17.185Z,36.70
2018-07-15T11:07:45.571Z,37.70
2018-07-15T11:10:14.029Z,38.20
2018-07-15T11:15:11.100Z,38.40
2018-07-15T11:17:44.253Z,38.40
2018-07-15T11:20:12.744Z,38.50
2018-07-15T11:22:41.112Z,38.40
2018-07-15T11:25:09.635Z,37.80
2018-07-15T11:27:38.112Z,37.90
2018-07-15T11:30:06.685Z,38.10
2018-07-15T11:32:35.081Z,38.30
2018-07-15T11:35:03.520Z,38.60
2018-07-15T11:37:31.896Z,38.50
2018-07-15T11:40:00.249Z,38.30
2018-07-15T11:42:28.656Z,38.10
2018-07-15T11:44:57.189Z,37.90
2018-07-15T11:47:25.633Z,38.20
2018-07-15T11:49:54.072Z,38.00
2018-07-15T11:52:22.500Z,38.10
2018-07-15T11:54:50.920Z,38.40
2018-07-15T11:57:19.341Z,38.40
2018-07-15T11:59:47.803Z,38.50
2018-07-15T12:02:16.202Z,38.80
2018-07-15T12:04:44.689Z,38.40
2018-07-15T12:07:13.111Z,38.50
2018-07-15T12:09:41.680Z,38.50
2018-07-15T12:12:10.084Z,38.50
2018-07-15T12:14:38.519Z,38.10
2018-07-15T12:17:06.952Z,38.50
2018-07-15T12:19:35.375Z,38.90
2018-07-15T12:22:03.817Z,39.20
2018-07-15T12:24:32.256Z,39.50
2018-07-15T12:27:00.801Z,39.50
2018-07-15T12:29:29.193Z,39.20
2018-07-15T12:31:57.592Z,39.20
2018-07-15T12:34:26.008Z,39.30
2018-07-15T12:36:54.433Z,38.70
2018-07-15T12:39:22.932Z,38.30
2018-07-15T12:41:51.300Z,39.10
2018-07-15T12:44:21.793Z,39.20
2018-07-15T12:46:50.352Z,39.30
2018-07-15T12:49:18.844Z,39.10
2018-07-15T12:51:47.290Z,38.80
2018-07-15T12:54:15.688Z,38.20
2018-07-15T12:56:44.121Z,38.20
2018-07-15T12:59:12.474Z,38.30
2018-07-15T13:01:40.857Z,38.80
2018-07-15T13:04:09.308Z,38.70
2018-07-15T13:06:37.731Z,38.30
2018-07-15T13:09:06.952Z,38.50
2018-07-15T13:11:35.352Z,38.90
2018-07-15T13:14:03.850Z,39.30
2018-07-15T13:16:32.273Z,38.10
2018-07-15T13:19:00.648Z,38.60
2018-07-15T13:21:28.986Z,38.10
2018-07-15T13:23:57.408Z,37.30
2018-07-15T13:26:25.780Z,37.30
2018-07-15T13:28:54.248Z,37.60
2018-07-15T13:31:22.677Z,38.80
2018-07-15T13:33:51.057Z,38.60
2018-07-15T13:36:19.648Z,38.80
2018-07-15T13:38:48.080Z,38.40
2018-07-15T13:43:44.785Z,38.30
2018-07-15T13:46:13.156Z,38.80
2018-07-15T13:48:41.614Z,39.10
2018-07-15T13:51:10.256Z,39.30
2018-07-15T13:53:39.866Z,39.30
2018-07-15T13:56:08.170Z,38.90
2018-07-15T13:58:36.601Z,39.10
2018-07-15T14:01:05.356Z,38.90
2018-07-15T14:03:33.822Z,39.50
2018-07-15T14:06:02.274Z,39.50
2018-07-15T14:08:30.728Z,39.30
2018-07-15T14:10:59.205Z,39.20
2018-07-15T14:13:27.585Z,39.20
2018-07-15T14:15:57.125Z,39.10
2018-07-15T14:18:25.580Z,39.80
2018-07-15T14:20:54.053Z,40.00
2018-07-15T14:23:22.623Z,39.60
2018-07-15T14:25:51.124Z,39.90
2018-07-15T14:28:19.469Z,40.10
2018-07-15T14:30:47.891Z,39.90
2018-07-15T14:33:16.420Z,39.30
2018-07-15T14:35:44.953Z,39.20
2018-07-15T14:38:13.560Z,39.00
2018-07-15T14:40:42.047Z,38.70
2018-07-15T14:43:10.682Z,39.60
2018-07-15T14:45:43.121Z,40.20
2018-07-15T14:48:11.734Z,38.60
2018-07-15T14:50:40.557Z,37.80
2018-07-15T14:53:09.231Z,39.20
2018-07-15T14:55:38.379Z,39.80
2018-07-15T14:58:07.824Z,39.80
2018-07-15T15:00:36.649Z,39.00
2018-07-15T15:03:05.189Z,38.50
2018-07-15T15:05:33.652Z,38.90
2018-07-15T15:08:02.172Z,39.90
2018-07-15T15:10:34.431Z,40.00
2018-07-15T15:13:04.188Z,40.20
2018-07-15T15:15:34.798Z,40.00
2018-07-15T15:18:03.393Z,40.50
2018-07-15T15:20:31.941Z,40.80
2018-07-15T15:23:00.392Z,40.80
2018-07-15T15:25:28.826Z,41.20
2018-07-15T15:27:57.368Z,40.70
2018-07-15T15:30:25.936Z,40.70
2018-07-15T15:32:54.874Z,40.50
2018-07-15T15:35:23.475Z,39.00
2018-07-15T15:37:52.848Z,38.70
2018-07-15T15:40:21.290Z,39.30
2018-07-15T15:42:49.789Z,39.10
2018-07-15T15:45:18.245Z,39.20
2018-07-15T15:47:46.892Z,39.00
2018-07-15T15:50:15.321Z,39.70
2018-07-15T15:52:43.790Z,40.20
2018-07-15T15:55:12.301Z,40.70
2018-07-15T15:57:40.782Z,40.60
2018-07-15T16:00:10.372Z,40.80
2018-07-15T16:02:38.849Z,39.90
2018-07-15T16:05:07.793Z,38.60
2018-07-15T16:07:41.816Z,36.90
2018-07-15T16:10:11.481Z,37.90
2018-07-15T16:12:39.926Z,38.60
2018-07-15T16:15:08.406Z,38.70
2018-07-15T16:17:36.997Z,39.10
2018-07-15T16:20:06.221Z,39.30
2018-07-15T16:22:34.733Z,39.10
2018-07-15T16:25:03.273Z,38.90
2018-07-15T16:27:32.832Z,38.90
2018-07-15T16:30:01.265Z,38.90
2018-07-15T16:32:29.745Z,38.90
2018-07-15T16:34:58.177Z,39.20
2018-07-15T16:37:27.868Z,39.10
2018-07-15T16:39:58.829Z,39.20
2018-07-15T16:42:27.248Z,39.40
2018-07-15T16:44:55.760Z,39.10
2018-07-15T16:47:26.172Z,39.00
2018-07-15T16:49:54.738Z,39.10
2018-07-15T16:52:23.449Z,38.90
2018-07-15T16:54:52.037Z,38.70
2018-07-15T16:57:20.512Z,38.70
2018-07-15T17:02:18.182Z,37.70
2018-07-15T17:04:46.594Z,37.60
2018-07-15T17:07:15.048Z,37.40
2018-07-15T17:09:43.499Z,37.10
2018-07-15T17:12:11.885Z,37.50
2018-07-15T17:14:40.135Z,37.30
2018-07-15T17:17:08.475Z,37.60
2018-07-15T17:19:36.833Z,37.70
2018-07-15T17:22:07.344Z,37.80
2018-07-15T17:24:35.764Z,37.60
2018-07-15T17:27:04.244Z,37.80
2018-07-15T17:29:32.665Z,38.10
2018-07-15T17:32:01.052Z,38.20
2018-07-15T17:34:29.576Z,37.70
2018-07-15T17:36:57.972Z,37.80
2018-07-15T17:39:26.416Z,38.00
2018-07-15T17:41:54.876Z,38.00
2018-07-15T17:44:23.310Z,37.60
2018-07-15T17:46:51.717Z,37.20
2018-07-15T17:49:20.173Z,37.30
2018-07-15T17:51:49.547Z,37.40
2018-07-15T17:54:20.596Z,37.40
2018-07-15T17:56:49.130Z,37.20
2018-07-15T17:59:17.743Z,36.90
2018-07-15T18:01:46.692Z,36.90
2018-07-15T18:04:15.444Z,36.90
2018-07-15T18:06:43.958Z,36.60
2018-07-15T18:09:12.349Z,36.60
2018-07-15T18:11:41.138Z,36.30
2018-07-15T18:14:09.672Z,36.40
2018-07-15T18:19:06.381Z,36.20
2018-07-15T18:21:34.848Z,35.90
2018-07-15T18:24:03.635Z,35.70
2018-07-15T18:26:38.451Z,35.30
2018-07-15T18:29:08.104Z,35.10
2018-07-15T18:31:40.441Z,34.90
2018-07-15T18:34:09.971Z,35.00
2018-07-15T18:36:39.081Z,35.10
2018-07-15T18:39:08.014Z,35.10
2018-07-15T18:41:36.405Z,34.90
2018-07-15T18:44:05.473Z,34.60
2018-07-15T18:46:34.921Z,34.70
2018-07-15T18:49:05.033Z,34.60
2018-07-15T18:51:35.456Z,34.10
2018-07-15T18:54:06.025Z,33.90
2018-07-15T18:56:35.776Z,33.80
2018-07-15T18:59:05.818Z,33.60
2018-07-15T19:01:36.765Z,33.60
2018-07-15T19:04:07.292Z,33.60
2018-07-15T19:06:39.005Z,33.40
2018-07-15T19:09:08.972Z,32.80
2018-07-15T19:11:38.156Z,32.80
2018-07-15T19:14:06.741Z,32.70
2018-07-15T19:16:36.629Z,32.40
2018-07-15T19:19:05.456Z,32.40
2018-07-15T19:21:35.962Z,32.20
2018-07-15T19:24:07.869Z,32.10
2018-07-15T19:26:38.185Z,31.90
2018-07-15T19:29:08.381Z,31.60
2018-07-15T19:31:37.100Z,31.40
2018-07-15T19:34:06.075Z,31.30
2018-07-15T19:36:35.726Z,31.20
2018-07-15T19:39:13.087Z,30.90
2018-07-15T19:41:41.680Z,30.70
2018-07-15T19:44:10.264Z,30.50
2018-07-15T19:46:38.710Z,30.40
2018-07-15T19:49:08.204Z,30.20
2018-07-15T19:51:36.773Z,29.90
2018-07-15T19:54:05.805Z,29.60
2018-07-15T19:56:34.429Z,29.30
2018-07-15T19:59:05.168Z,29.30
2018-07-15T20:01:33.822Z,29.10
2018-07-15T20:04:04.526Z,29.00
2018-07-15T20:06:32.933Z,28.90
2018-07-15T20:09:02.372Z,28.70
2018-07-15T20:11:30.752Z,28.50
2018-07-15T20:14:01.288Z,28.40
2018-07-15T20:16:30.749Z,28.20
2018-07-15T20:18:59.197Z,28.10
2018-07-15T20:21:27.612Z,27.90
2018-07-15T20:23:56.013Z,27.80
2018-07-15T20:26:24.472Z,27.60
2018-07-15T20:28:52.908Z,27.50
2018-07-15T20:31:21.385Z,27.30
2018-07-15T20:33:49.856Z,27.20
2018-07-15T20:36:18.460Z,27.10
2018-07-15T20:38:46.846Z,27.00
2018-07-15T20:41:15.241Z,26.80
2018-07-15T20:43:43.976Z,26.70
2018-07-15T20:46:12.417Z,26.60
2018-07-15T20:48:40.891Z,26.50
2018-07-15T20:51:10.581Z,26.40
2018-07-15T20:53:39.041Z,26.30
2018-07-15T20:56:07.713Z,26.20
2018-07-15T20:58:36.424Z,26.00
2018-07-15T21:03:32.885Z,25.80
2018-07-15T21:06:01.304Z,25.70
2018-07-15T21:08:29.844Z,25.60
2018-07-15T21:10:58.590Z,25.50
2018-07-15T21:13:27.099Z,25.30
2018-07-15T21:15:55.517Z,25.30
2018-07-15T21:18:24.334Z,25.10
2018-07-15T21:20:52.742Z,25.00
2018-07-15T21:23:22.233Z,24.90
2018-07-15T21:25:50.773Z,24.80
2018-07-15T21:28:20.304Z,24.70
2018-07-15T21:30:49.127Z,24.60
2018-07-15T21:33:17.576Z,24.50
2018-07-15T21:35:46.060Z,24.40
2018-07-15T21:38:14.458Z,24.30
2018-07-15T21:40:42.872Z,24.20
2018-07-15T21:43:11.410Z,24.10
2018-07-15T21:45:39.909Z,24.00
2018-07-15T21:48:08.389Z,24.00
2018-07-15T21:50:36.790Z,23.90
2018-07-15T21:53:05.360Z,23.80
2018-07-15T21:55:33.836Z,23.70
2018-07-15T21:58:02.365Z,23.60
2018-07-15T22:00:33.784Z,23.50
2018-07-15T22:03:02.126Z,23.40
2018-07-15T22:05:30.633Z,23.30
2018-07-15T22:08:10.260Z,23.20
2018-07-15T22:10:42.823Z,23.10
2018-07-15T22:13:11.269Z,23.00
2018-07-15T22:15:40.066Z,23.00
2018-07-15T22:18:08.891Z,22.90
2018-07-15T22:20:37.961Z,22.70
2018-07-15T22:23:07.048Z,22.70
2018-07-15T22:25:35.476Z,22.60
2018-07-15T22:28:04.470Z,22.60
2018-07-15T22:30:32.971Z,22.50
2018-07-15T22:33:01.537Z,22.40
2018-07-15T22:35:29.908Z,22.40
2018-07-15T22:37:58.281Z,22.40
2018-07-15T22:40:27.081Z,22.30
2018-07-15T22:42:55.504Z,22.20
2018-07-15T22:45:24.208Z,22.10
2018-07-15T22:47:52.620Z,22.10
2018-07-15T22:50:23.137Z,22.00
2018-07-15T22:52:51.608Z,21.90
2018-07-15T22:55:20.024Z,21.70
2018-07-15T22:57:48.395Z,21.60
2018-07-15T23:00:16.818Z,21.60
2018-07-15T23:02:45.212Z,21.60
2018-07-15T23:05:37.071Z,21.50
2018-07-15T23:08:06.056Z,21.40
2018-07-15T23:10:34.784Z,21.30
2018-07-15T23:13:04.492Z,21.30
2018-07-15T23:15:37.171Z,21.20
2018-07-15T23:18:05.650Z,21.10
2018-07-15T23:20:34.990Z,21.00
2018-07-15T23:23:04.523Z,20.90
2018-07-15T23:25:33.212Z,20.90
2018-07-15T23:28:02.742Z,20.80
2018-07-15T23:30:31.976Z,20.80
2018-07-15T23:33:01.013Z,20.70
2018-07-15T23:35:29.632Z,20.60
2018-07-15T23:37:58.110Z,20.60
2018-07-15T23:40:26.593Z,20.60
2018-07-15T23:42:56.133Z,20.50
2018-07-15T23:45:25.771Z,20.40
2018-07-15T23:47:54.604Z,20.30
2018-07-15T23:50:23.085Z,20.20
2018-07-15T23:52:51.676Z,20.20
2018-07-15T23:55:20.288Z,20.10
2018-07-15T23:57:48.871Z,20.10
